Time;durP1;ratioP1;P1;durP2;ratioP2;P2;SDS_P1;SDS_P2;PMS_P1;PMS_P2;Temp;Humidity;BMP_temperature;BMP_pressure;BME280_temperature;BME280_humidity;BME280_pressure;Samples;Min_cycle;Max_cycle;Signal;HPM_P1;HPM_P2
2023/04/11 00:00:34;;;;;;;25.83;5.25;;;10.00;99.90;;;;;;5008708;28;20107;-60
2023/04/11 00:03:02;;;;;;;18.77;4.05;;;10.00;99.90;;;;;;5002774;28;20389;-61
2023/04/11 00:05:30;;;;;;;18.25;4.72;;;9.90;99.90;;;;;;5003586;28;20037;-60
2023/04/11 00:07:56;;;;;;;21.45;4.28;;;9.90;99.90;;;;;;5003043;28;20062;-60
2023/04/11 00:10:21;;;;;;;20.08;3.42;;;9.90;99.90;;;;;;5004954;28;20264;-60
2023/04/11 00:12:47;;;;;;;20.58;3.35;;;9.80;99.90;;;;;;4991540;28;20077;-60
2023/04/11 00:15:15;;;;;;;19.33;3.65;;;9.80;99.90;;;;;;4979112;28;20073;-60
2023/04/11 00:17:44;;;;;;;17.67;3.30;;;9.70;99.90;;;;;;5018656;28;20084;-59
2023/04/11 00:20:13;;;;;;;23.45;3.47;;;9.60;99.90;;;;;;4995266;28;20403;-59
2023/04/11 00:22:39;;;;;;;11.18;2.72;;;9.50;99.90;;;;;;4995052;28;20116;-60
2023/04/11 00:25:05;;;;;;;19.95;3.85;;;9.50;99.90;;;;;;5008136;28;20495;-60
2023/04/11 00:27:31;;;;;;;18.27;3.00;;;9.40;99.90;;;;;;5018611;28;20045;-60
2023/04/11 00:29:57;;;;;;;16.40;2.63;;;9.40;99.90;;;;;;5008670;28;20040;-60
2023/04/11 00:32:23;;;;;;;21.17;4.13;;;9.30;99.90;;;;;;5004283;28;20083;-60
2023/04/11 00:34:50;;;;;;;19.17;3.55;;;9.30;99.90;;;;;;5003410;28;20044;-60
2023/04/11 00:37:16;;;;;;;18.92;2.80;;;9.20;99.90;;;;;;4991437;28;20068;-59
2023/04/11 00:39:44;;;;;;;11.80;3.05;;;9.20;99.90;;;;;;4988037;28;20045;-59
2023/04/11 00:42:10;;;;;;;11.75;2.58;;;9.10;99.90;;;;;;4992164;28;20155;-58
2023/04/11 00:44:36;;;;;;;12.75;2.40;;;9.10;99.90;;;;;;5006704;28;20099;-60
2023/04/11 00:47:05;;;;;;;12.77;1.92;;;9.10;99.90;;;;;;5020972;28;20045;-59
2023/04/11 00:49:34;;;;;;;12.75;2.00;;;9.00;99.90;;;;;;5013702;28;20037;-60
2023/04/11 00:52:05;;;;;;;9.27;1.75;;;8.90;99.90;;;;;;5008986;28;20045;-59
2023/04/11 00:54:34;;;;;;;12.85;2.15;;;8.90;99.90;;;;;;4992990;28;20056;-59
2023/04/11 00:57:01;;;;;;;8.57;1.42;;;8.90;99.90;;;;;;5017886;28;20121;-59
2023/04/11 00:59:28;;;;;;;9.35;1.77;;;8.90;99.90;;;;;;5004965;28;20041;-59
2023/04/11 01:01:55;;;;;;;6.75;1.27;;;8.90;99.90;;;;;;5003688;28;20077;-60
2023/04/11 01:04:20;;;;;;;15.73;2.22;;;8.90;99.90;;;;;;5010007;28;20075;-59
2023/04/11 01:06:51;;;;;;;12.02;1.73;;;8.90;99.90;;;;;;5008426;28;20124;-59
2023/04/11 01:09:23;;;;;;;15.32;2.03;;;8.90;99.90;;;;;;4992104;28;20332;-60
2023/04/11 01:11:50;;;;;;;10.30;1.60;;;8.80;99.90;;;;;;5009467;28;20610;-61
2023/04/11 01:14:19;;;;;;;9.95;1.70;;;8.80;99.90;;;;;;5002477;28;20397;-61
2023/04/11 01:16:47;;;;;;;6.43;1.63;;;8.80;99.90;;;;;;5020002;28;20470;-61
2023/04/11 01:19:19;;;;;;;10.13;2.00;;;8.80;99.90;;;;;;5006408;28;20118;-61
2023/04/11 01:21:51;;;;;;;8.30;2.15;;;8.80;99.90;;;;;;5010035;28;20456;-60
2023/04/11 01:24:17;;;;;;;12.65;1.90;;;8.80;99.90;;;;;;5002503;28;20037;-60
2023/04/11 01:26:42;;;;;;;10.98;1.88;;;8.80;99.90;;;;;;4999816;28;20042;-60
2023/04/11 01:29:08;;;;;;;7.53;1.70;;;8.80;99.90;;;;;;5003154;28;20521;-62
2023/04/11 01:31:34;;;;;;;17.05;2.08;;;8.80;99.90;;;;;;5000535;28;20049;-62
2023/04/11 01:34:01;;;;;;;9.18;1.88;;;8.70;99.90;;;;;;5002750;28;20520;-62
2023/04/11 01:36:28;;;;;;;8.60;1.88;;;8.70;99.90;;;;;;5004669;28;20053;-62
2023/04/11 01:38:54;;;;;;;6.90;1.40;;;8.90;99.90;;;;;;5005696;28;20039;-62
2023/04/11 01:41:21;;;;;;;7.03;1.50;;;8.70;99.90;;;;;;4993915;28;20049;-62
2023/04/11 01:43:47;;;;;;;6.28;1.00;;;8.70;99.90;;;;;;5008780;28;20507;-62
2023/04/11 01:46:14;;;;;;;8.10;1.50;;;8.60;99.90;;;;;;5011026;28;20184;-62
2023/04/11 01:48:42;;;;;;;9.10;1.98;;;8.50;99.90;;;;;;5016697;28;20069;-62
2023/04/11 01:51:08;;;;;;;4.32;1.00;;;8.50;99.90;;;;;;5000039;28;20041;-62
2023/04/11 01:53:33;;;;;;;7.60;1.00;;;8.50;99.90;;;;;;5008308;28;20512;-62
2023/04/11 01:55:59;;;;;;;7.72;1.40;;;8.50;99.90;;;;;;5010041;28;20045;-62
2023/04/11 01:58:25;;;;;;;7.47;1.02;;;8.50;99.90;;;;;;5002976;28;20041;-62
2023/04/11 02:00:54;;;;;;;5.53;1.10;;;8.40;99.90;;;;;;4988471;28;20096;-62
2023/04/11 02:03:21;;;;;;;4.97;1.40;;;8.50;99.90;;;;;;5002154;28;20372;-62
2023/04/11 02:05:47;;;;;;;6.63;1.08;;;8.50;99.90;;;;;;5017006;28;20099;-62
2023/04/11 02:08:12;;;;;;;6.00;1.35;;;8.50;99.90;;;;;;4992811;28;20040;-62
2023/04/11 02:10:38;;;;;;;8.68;1.50;;;8.50;99.90;;;;;;5011187;28;20052;-62
2023/04/11 02:13:04;;;;;;;8.45;1.35;;;8.50;99.90;;;;;;5035450;28;20041;-62
2023/04/11 02:15:29;;;;;;;10.57;1.25;;;8.50;99.90;;;;;;5011135;28;20034;-62
2023/04/11 02:17:56;;;;;;;4.78;1.08;;;8.40;99.90;;;;;;5013149;28;20053;-62
2023/04/11 02:20:22;;;;;;;9.38;1.60;;;8.40;99.90;;;;;;5011749;28;20354;-61
2023/04/11 02:22:48;;;;;;;5.82;1.15;;;8.40;99.90;;;;;;5010652;28;20397;-62
2023/04/11 02:25:13;;;;;;;6.80;1.40;;;8.40;99.90;;;;;;5004834;28;20053;-60
2023/04/11 02:27:39;;;;;;;5.60;1.33;;;8.40;99.90;;;;;;5013617;28;20111;-62
2023/04/11 02:30:06;;;;;;;11.18;1.50;;;8.40;99.90;;;;;;4995204;28;20025;-62
2023/04/11 02:32:33;;;;;;;8.13;2.10;;;8.40;99.90;;;;;;5001727;28;20034;-62
2023/04/11 02:34:59;;;;;;;11.18;1.98;;;8.40;99.90;;;;;;4992953;28;20045;-62
2023/04/11 02:37:25;;;;;;;6.07;1.80;;;8.40;99.90;;;;;;4988393;28;20522;-61
2023/04/11 02:39:51;;;;;;;7.78;1.70;;;8.40;99.90;;;;;;5012229;28;20041;-62
2023/04/11 02:42:16;;;;;;;10.60;1.88;;;8.40;99.90;;;;;;5012465;28;20041;-62
2023/04/11 02:44:42;;;;;;;9.70;2.47;;;8.40;99.90;;;;;;5011598;28;20041;-62
2023/04/11 02:47:08;;;;;;;9.52;2.20;;;8.40;99.90;;;;;;5006333;28;20099;-62
2023/04/11 02:49:36;;;;;;;9.98;2.70;;;8.40;99.90;;;;;;5008522;28;20053;-62
2023/04/11 02:52:03;;;;;;;11.18;2.15;;;8.40;99.90;;;;;;5011623;28;20355;-62
2023/04/11 02:54:28;;;;;;;13.52;2.03;;;8.40;99.90;;;;;;4991051;28;20411;-62
2023/04/11 02:56:54;;;;;;;13.93;2.28;;;8.50;99.90;;;;;;5007765;28;20398;-62
2023/04/11 02:59:20;;;;;;;14.77;3.20;;;8.50;99.90;;;;;;5020548;28;20080;-62
2023/04/11 03:01:46;;;;;;;10.85;2.22;;;8.50;99.90;;;;;;5006106;28;20460;-62
2023/04/11 03:04:12;;;;;;;10.73;2.45;;;8.50;99.90;;;;;;5013426;28;20049;-61
2023/04/11 03:06:38;;;;;;;15.35;4.03;;;8.50;99.90;;;;;;5008741;28;20041;-61
2023/04/11 03:09:03;;;;;;;9.68;1.90;;;8.60;99.90;;;;;;5020487;28;20073;-62
2023/04/11 03:11:29;;;;;;;9.55;1.80;;;8.60;99.90;;;;;;4998109;28;20076;-62
2023/04/11 03:13:55;;;;;;;10.05;2.13;;;8.60;99.90;;;;;;5008721;28;20045;-62
2023/04/11 03:16:21;;;;;;;18.95;2.50;;;8.60;99.90;;;;;;5009124;28;20688;-62
2023/04/11 03:18:47;;;;;;;11.30;2.40;;;8.60;99.90;;;;;;5021214;28;20081;-62
2023/04/11 03:21:13;;;;;;;8.95;1.95;;;8.60;99.90;;;;;;5010832;28;20041;-63
2023/04/11 03:23:38;;;;;;;8.23;2.22;;;8.60;99.90;;;;;;5007147;28;20048;-62
2023/04/11 03:26:05;;;;;;;11.50;2.38;;;8.60;99.90;;;;;;4987976;28;20049;-62
2023/04/11 03:28:31;;;;;;;9.75;2.25;;;8.60;99.90;;;;;;5005872;28;20392;-62
2023/04/11 03:30:57;;;;;;;10.68;2.65;;;8.60;99.90;;;;;;5012885;28;20380;-62
2023/04/11 03:33:23;;;;;;;9.98;2.15;;;8.60;99.90;;;;;;5005059;28;20034;-62
2023/04/11 03:35:49;;;;;;;8.20;1.88;;;8.60;99.90;;;;;;5008596;28;20068;-61
2023/04/11 03:38:14;;;;;;;11.15;2.40;;;8.60;99.90;;;;;;5011215;28;20531;-62
2023/04/11 03:40:40;;;;;;;5.97;1.88;;;8.60;99.90;;;;;;4990216;28;20080;-62
2023/04/11 03:43:06;;;;;;;7.30;2.15;;;8.60;99.90;;;;;;5005987;28;20034;-62
2023/04/11 03:45:32;;;;;;;15.18;2.50;;;8.50;99.90;;;;;;5006506;28;20128;-62
2023/04/11 03:47:58;;;;;;;9.65;2.83;;;8.50;99.90;;;;;;5006216;28;20052;-62
2023/04/11 03:50:24;;;;;;;10.10;2.53;;;8.60;99.90;;;;;;5005565;28;20045;-62
2023/04/11 03:52:52;;;;;;;11.93;2.80;;;8.60;99.90;;;;;;5011225;28;20073;-62
2023/04/11 03:55:19;;;;;;;10.13;2.80;;;8.50;99.90;;;;;;4992409;28;20076;-62
2023/04/11 03:57:45;;;;;;;10.02;2.78;;;8.50;99.90;;;;;;5015197;28;20511;-62
2023/04/11 04:00:12;;;;;;;14.63;3.03;;;8.50;99.90;;;;;;5007470;28;20075;-62
2023/04/11 04:02:37;;;;;;;16.33;3.63;;;8.50;99.90;;;;;;5010758;28;20569;-62
2023/04/11 04:05:03;;;;;;;11.90;3.40;;;8.50;99.90;;;;;;5015167;28;20037;-62
2023/04/11 04:07:30;;;;;;;8.43;2.30;;;8.50;99.90;;;;;;5005784;28;20037;-62
2023/04/11 04:09:56;;;;;;;9.85;2.65;;;8.60;99.90;;;;;;4985349;28;20057;-62
2023/04/11 04:12:22;;;;;;;17.58;3.45;;;8.50;99.90;;;;;;4985353;28;20037;-62
2023/04/11 04:14:48;;;;;;;14.23;2.25;;;8.50;99.90;;;;;;4999113;28;20041;-62
2023/04/11 04:17:15;;;;;;;14.13;3.17;;;8.50;99.90;;;;;;5013099;28;20527;-62
2023/04/11 04:19:41;;;;;;;9.65;2.78;;;8.50;99.90;;;;;;4992809;28;20128;-62
2023/04/11 04:22:10;;;;;;;9.40;2.50;;;8.50;99.90;;;;;;5002235;28;20045;-62
2023/04/11 04:24:46;;;;;;;9.45;2.45;;;8.40;99.90;;;;;;5001085;28;20055;-62
2023/04/11 04:27:12;;;;;;;13.30;3.08;;;8.40;99.90;;;;;;4984397;28;20053;-60
2023/04/11 04:29:45;;;;;;;11.50;2.65;;;8.40;99.90;;;;;;4986046;28;20044;-62
2023/04/11 04:32:19;;;;;;;12.32;2.47;;;8.40;99.90;;;;;;5002480;28;20041;-62
2023/04/11 04:34:48;;;;;;;;;;;8.40;99.90;;;;;;4998460;28;20370;-62
2023/04/11 04:37:22;;;;;;;15.30;2.40;;;8.30;99.90;;;;;;4999470;28;19971;-62
2023/04/11 04:39:55;;;;;;;13.73;3.20;;;8.30;99.90;;;;;;5007042;28;20041;-62
2023/04/11 04:42:22;;;;;;;15.37;2.53;;;8.30;99.90;;;;;;4994769;28;20504;-62
2023/04/11 04:44:48;;;;;;;10.43;2.20;;;8.30;99.90;;;;;;5002924;28;20346;-62
2023/04/11 04:47:15;;;;;;;18.63;2.90;;;8.30;99.90;;;;;;5005252;28;20403;-62
2023/04/11 04:49:42;;;;;;;12.40;3.05;;;8.30;99.90;;;;;;5020874;28;20045;-62
2023/04/11 04:52:08;;;;;;;13.77;3.08;;;8.30;99.90;;;;;;5005710;28;20488;-62
2023/04/11 04:54:34;;;;;;;13.05;2.63;;;8.30;99.90;;;;;;5000703;28;20045;-62
2023/04/11 04:57:00;;;;;;;10.55;2.22;;;8.30;99.90;;;;;;5001902;28;20111;-62
2023/04/11 04:59:26;;;;;;;11.95;2.92;;;8.30;99.90;;;;;;5007733;28;20492;-62
2023/04/11 05:01:55;;;;;;;20.27;3.97;;;8.30;99.90;;;;;;5005848;28;20045;-62
2023/04/11 05:04:21;;;;;;;12.77;2.97;;;8.30;99.90;;;;;;5029134;28;20451;-62
2023/04/11 05:06:50;;;;;;;13.93;2.72;;;8.30;99.90;;;;;;5009272;28;20505;-62
2023/04/11 05:09:16;;;;;;;13.70;3.03;;;8.30;99.90;;;;;;4997184;28;20084;-62
2023/04/11 05:11:42;;;;;;;15.18;3.03;;;8.30;99.90;;;;;;5006268;28;20069;-61
2023/04/11 05:14:08;;;;;;;14.68;3.20;;;8.20;99.90;;;;;;5018871;28;20040;-62
2023/04/11 05:16:36;;;;;;;18.65;3.15;;;8.20;99.90;;;;;;5002794;28;20550;-62
2023/04/11 05:19:02;;;;;;;13.38;2.45;;;8.20;99.90;;;;;;5025356;28;20461;-62
2023/04/11 05:21:28;;;;;;;13.85;3.10;;;8.20;99.90;;;;;;4972240;28;20046;-62
2023/04/11 05:23:53;;;;;;;12.90;3.13;;;8.20;99.90;;;;;;5003853;28;20485;-62
2023/04/11 05:26:19;;;;;;;11.30;3.25;;;8.20;99.90;;;;;;5006814;28;20393;-62
2023/04/11 05:28:45;;;;;;;11.77;2.65;;;8.20;99.90;;;;;;5007694;28;20037;-61
2023/04/11 05:31:11;;;;;;;10.38;3.30;;;8.20;99.90;;;;;;4976566;28;20029;-60
2023/04/11 05:33:37;;;;;;;15.82;2.85;;;8.20;99.90;;;;;;5002695;28;20396;-61
2023/04/11 05:36:03;;;;;;;11.93;3.42;;;8.10;99.90;;;;;;5014821;28;20056;-61
2023/04/11 05:38:32;;;;;;;12.13;3.47;;;8.20;99.90;;;;;;5010234;28;20504;-61
2023/04/11 05:41:00;;;;;;;10.73;2.55;;;8.20;99.90;;;;;;5029330;28;20037;-61
2023/04/11 05:43:26;;;;;;;10.98;2.92;;;8.20;99.90;;;;;;5006452;28;20045;-61
2023/04/11 05:45:52;;;;;;;17.95;3.65;;;8.20;99.90;;;;;;5026859;28;20567;-61
2023/04/11 05:48:21;;;;;;;14.80;2.72;;;8.20;99.90;;;;;;5013967;28;20117;-61
2023/04/11 05:50:48;;;;;;;18.30;2.90;;;8.20;99.90;;;;;;5013496;28;20045;-61
2023/04/11 05:53:17;;;;;;;10.63;2.45;;;8.20;99.90;;;;;;4993145;28;20046;-61
2023/04/11 05:55:43;;;;;;;16.50;3.10;;;8.20;99.90;;;;;;4996493;28;20143;-61
2023/04/11 05:58:10;;;;;;;16.38;3.38;;;8.30;99.90;;;;;;5011268;28;20551;-61
2023/04/11 06:00:37;;;;;;;16.50;3.20;;;8.30;99.90;;;;;;5005932;28;20037;-61
2023/04/11 06:03:04;;;;;;;15.07;3.50;;;8.30;99.90;;;;;;5012771;28;20424;-61
2023/04/11 06:05:30;;;;;;;20.70;3.22;;;8.30;99.90;;;;;;5009085;28;20439;-61
2023/04/11 06:07:58;;;;;;;17.00;2.95;;;8.30;99.90;;;;;;5007682;28;20073;-61
2023/04/11 06:10:24;;;;;;;18.08;3.15;;;8.30;99.90;;;;;;5006991;28;20041;-61
2023/04/11 06:12:50;;;;;;;12.95;2.75;;;8.30;99.90;;;;;;5004758;28;20129;-61
2023/04/11 06:15:16;;;;;;;20.83;3.30;;;8.30;99.90;;;;;;5012008;28;20296;-61
2023/04/11 06:17:43;;;;;;;17.35;3.33;;;8.30;99.90;;;;;;5010476;28;20045;-61
2023/04/11 06:20:10;;;;;;;16.73;2.95;;;8.30;99.90;;;;;;4980037;28;20048;-61
2023/04/11 06:22:36;;;;;;;17.63;3.00;;;8.40;99.90;;;;;;5007461;28;20096;-61
2023/04/11 06:25:03;;;;;;;12.75;2.72;;;8.40;99.90;;;;;;5008513;28;20557;-61
2023/04/11 06:27:29;;;;;;;14.05;2.97;;;8.40;99.90;;;;;;4994232;28;20041;-61
2023/04/11 06:29:55;;;;;;;13.63;2.80;;;8.30;99.90;;;;;;5011202;28;20052;-61
2023/04/11 06:32:21;;;;;;;16.08;2.75;;;8.40;99.90;;;;;;5010321;28;20045;-60
2023/04/11 06:34:46;;;;;;;13.90;3.22;;;8.50;99.90;;;;;;5008912;28;20951;-61
2023/04/11 06:37:18;;;;;;;16.98;3.95;;;8.50;99.90;;;;;;5006783;28;20516;-61
2023/04/11 06:39:47;;;;;;;16.70;3.50;;;8.50;99.90;;;;;;5004910;28;20448;-61
2023/04/11 06:42:12;;;;;;;20.02;3.67;;;8.40;99.90;;;;;;5006525;28;20030;-61
2023/04/11 06:44:38;;;;;;;15.95;3.45;;;8.40;99.90;;;;;;5003067;28;20194;-61
2023/04/11 06:47:04;;;;;;;13.63;3.20;;;8.50;99.90;;;;;;5006351;28;20037;-61
2023/04/11 06:49:32;;;;;;;15.30;3.58;;;8.40;99.90;;;;;;4991175;28;20088;-61
2023/04/11 06:51:58;;;;;;;19.83;3.80;;;8.30;99.90;;;;;;4991626;28;20041;-61
2023/04/11 06:54:24;;;;;;;17.00;2.95;;;8.20;99.90;;;;;;4990958;28;20049;-61
2023/04/11 06:56:53;;;;;;;19.05;4.00;;;8.20;99.90;;;;;;5005924;28;20873;-61
2023/04/11 06:59:19;;;;;;;14.52;3.38;;;8.30;99.90;;;;;;4990364;28;20080;-61
2023/04/11 07:01:45;;;;;;;15.70;3.17;;;8.40;99.90;;;;;;5008131;28;20040;-61
2023/04/11 07:04:11;;;;;;;15.90;3.05;;;8.50;99.90;;;;;;5017420;28;20100;-61
2023/04/11 07:06:36;;;;;;;17.80;2.78;;;8.60;99.90;;;;;;5004551;28;20536;-61
2023/04/11 07:09:03;;;;;;;13.65;2.88;;;8.70;99.90;;;;;;4989181;28;20113;-61
2023/04/11 07:11:29;;;;;;;14.10;2.95;;;8.70;99.90;;;;;;4987052;28;20562;-61
2023/04/11 07:13:57;;;;;;;14.90;2.58;;;8.70;99.90;;;;;;5011072;28;20045;-60
2023/04/11 07:16:23;;;;;;;17.00;3.08;;;8.70;99.90;;;;;;4992992;28;20085;-61
2023/04/11 07:18:51;;;;;;;12.18;2.92;;;8.70;99.90;;;;;;5005809;28;20072;-61
2023/04/11 07:21:17;;;;;;;16.45;3.30;;;8.70;99.90;;;;;;5005494;28;20128;-61
2023/04/11 07:23:42;;;;;;;18.38;3.17;;;8.70;99.90;;;;;;5003140;28;20044;-61
2023/04/11 07:26:12;;;;;;;21.08;3.30;;;8.70;99.90;;;;;;4991162;28;20037;-61
2023/04/11 07:28:43;;;;;;;12.50;2.72;;;8.50;99.90;;;;;;5010318;28;20065;-59
2023/04/11 07:31:10;;;;;;;12.50;2.78;;;8.60;99.90;;;;;;4987229;28;20037;-58
2023/04/11 07:33:36;;;;;;;13.88;4.25;;;8.70;99.90;;;;;;4986063;28;20083;-60
2023/04/11 07:36:03;;;;;;;10.23;2.50;;;8.80;99.90;;;;;;5008089;28;20045;-61
2023/04/11 07:38:29;;;;;;;13.20;2.85;;;8.90;99.90;;;;;;5001446;28;20499;-60
2023/04/11 07:40:56;;;;;;;8.88;2.83;;;9.00;99.90;;;;;;4996812;28;20037;-61
2023/04/11 07:43:23;;;;;;;11.63;3.33;;;9.00;99.90;;;;;;5004958;28;20046;-61
2023/04/11 07:45:53;;;;;;;16.05;3.28;;;9.00;99.90;;;;;;5001156;28;20053;-60
2023/04/11 07:48:20;;;;;;;14.90;2.92;;;8.70;99.90;;;;;;4984249;28;20086;-61
2023/04/11 07:50:46;;;;;;;12.60;2.95;;;8.70;99.90;;;;;;4995941;28;20049;-60
2023/04/11 07:53:12;;;;;;;14.02;2.40;;;8.60;99.90;;;;;;4987848;28;20034;-59
2023/04/11 07:55:38;;;;;;;15.88;2.65;;;8.70;99.90;;;;;;5005722;28;20081;-62
2023/04/11 07:58:04;;;;;;;15.63;2.67;;;8.70;99.90;;;;;;5003455;28;20045;-59
2023/04/11 08:00:33;;;;;;;11.63;2.30;;;8.70;99.90;;;;;;5005681;28;20094;-62
2023/04/11 08:03:03;;;;;;;12.90;2.72;;;8.70;99.90;;;;;;4986674;28;20061;-61
2023/04/11 08:05:33;;;;;;;13.00;2.95;;;8.80;99.90;;;;;;5003916;28;20058;-60
2023/04/11 08:07:59;;;;;;;15.27;3.28;;;8.80;99.90;;;;;;4988661;28;20152;-61
2023/04/11 08:10:25;;;;;;;16.05;3.80;;;8.80;99.90;;;;;;5007358;28;20049;-61
2023/04/11 08:12:54;;;;;;;13.30;2.70;;;8.90;99.90;;;;;;5002787;28;20258;-60
2023/04/11 08:15:20;;;;;;;7.38;2.15;;;8.80;99.90;;;;;;5009806;28;20574;-59
2023/04/11 08:17:48;;;;;;;14.25;3.58;;;8.90;99.90;;;;;;4990219;28;20041;-61
2023/04/11 08:20:15;;;;;;;12.15;2.80;;;9.20;99.90;;;;;;5003131;28;20095;-61
2023/04/11 08:22:43;;;;;;;6.45;1.80;;;9.30;99.90;;;;;;5002101;28;20072;-59
2023/04/11 08:25:14;;;;;;;11.43;2.25;;;8.80;99.90;;;;;;4985887;28;20123;-61
2023/04/11 08:27:40;;;;;;;13.20;3.17;;;8.60;99.90;;;;;;4988830;28;20413;-61
2023/04/11 08:30:07;;;;;;;10.48;2.72;;;8.50;99.90;;;;;;5003441;28;20038;-61
2023/04/11 08:32:36;;;;;;;13.45;2.95;;;8.60;99.90;;;;;;5000068;28;20118;-60
2023/04/11 08:35:03;;;;;;;10.40;2.40;;;8.80;99.90;;;;;;5000175;28;20045;-62
2023/04/11 08:37:29;;;;;;;16.05;2.30;;;8.90;99.90;;;;;;4981884;28;20485;-61
2023/04/11 08:39:55;;;;;;;12.43;2.45;;;8.90;99.90;;;;;;5002388;28;20482;-60
2023/04/11 08:42:29;;;;;;;13.98;2.65;;;8.90;99.90;;;;;;4984937;28;20049;-61
2023/04/11 08:44:57;;;;;;;13.35;2.47;;;9.20;99.90;;;;;;4987907;28;20049;-62
2023/04/11 08:47:25;;;;;;;19.85;3.35;;;9.30;99.90;;;;;;4986217;28;20421;-62
2023/04/11 08:49:52;;;;;;;14.68;2.90;;;9.20;99.90;;;;;;4998298;28;20148;-63
2023/04/11 08:52:22;;;;;;;16.35;3.78;;;9.30;99.90;;;;;;5004622;28;20038;-60
2023/04/11 08:54:50;;;;;;;14.98;2.80;;;9.30;99.90;;;;;;4997089;28;20049;-60
2023/04/11 08:57:33;;;;;;;8.40;2.08;;;9.50;99.90;;;;;;4998264;28;20743;-61
2023/04/11 09:00:23;;;;;;;13.43;2.38;;;9.60;99.90;;;;;;5002157;28;20045;-62
2023/04/11 09:02:58;;;;;;;9.65;2.28;;;9.40;99.90;;;;;;4978515;28;20273;-59
2023/04/11 09:05:28;;;;;;;11.30;2.92;;;9.30;99.90;;;;;;4982730;28;20241;-60
2023/04/11 09:07:56;;;;;;;13.07;3.28;;;9.20;99.90;;;;;;5002981;28;20091;-60
2023/04/11 09:10:26;;;;;;;15.27;2.90;;;9.00;99.90;;;;;;4989877;28;20072;-59
2023/04/11 09:12:52;;;;;;;14.75;2.80;;;9.00;99.90;;;;;;5004741;28;20045;-61
2023/04/11 09:15:27;;;;;;;17.20;3.80;;;9.10;99.90;;;;;;4996622;28;20041;-61
2023/04/11 09:17:53;;;;;;;12.00;2.40;;;9.20;99.90;;;;;;5002940;28;20767;-62
2023/04/11 09:20:24;;;;;;;10.05;2.97;;;9.20;99.90;;;;;;5005766;28;20132;-61
2023/04/11 09:22:53;;;;;;;12.77;2.58;;;9.40;99.90;;;;;;4987752;28;20034;-59
2023/04/11 09:25:22;;;;;;;9.80;2.30;;;9.30;99.90;;;;;;5011980;28;20420;-63
2023/04/11 09:27:49;;;;;;;8.52;2.05;;;9.20;99.90;;;;;;5010305;28;20519;-61
2023/04/11 09:30:22;;;;;;;11.43;2.13;;;8.90;99.90;;;;;;4990659;28;20068;-62
2023/04/11 09:32:49;;;;;;;11.32;2.83;;;8.80;99.90;;;;;;5002958;28;20037;-59
2023/04/11 09:35:15;;;;;;;12.98;2.50;;;8.90;99.90;;;;;;5003631;28;20076;-60
2023/04/11 09:38:03;;;;;;;14.70;2.65;;;8.90;99.90;;;;;;4988387;28;20045;-60
2023/04/11 09:40:40;;;;;;;8.50;1.92;;;8.10;99.90;;;;;;5006203;28;20042;-61
2023/04/11 09:43:06;;;;;;;8.43;1.92;;;7.60;99.90;;;;;;4999875;28;20037;-58
2023/04/11 09:45:31;;;;;;;9.52;1.77;;;7.50;99.90;;;;;;4992062;28;20111;-61
2023/04/11 09:47:58;;;;;;;9.15;2.72;;;7.40;99.90;;;;;;4994929;28;20423;-60
2023/04/11 09:50:25;;;;;;;13.43;3.28;;;7.50;99.90;;;;;;4992067;28;20049;-60
2023/04/11 09:52:52;;;;;;;10.07;2.20;;;7.60;99.90;;;;;;5010118;28;20048;-62
2023/04/11 09:55:23;;;;;;;5.97;1.35;;;7.10;99.90;;;;;;5006993;28;20065;-62
2023/04/11 09:57:53;;;;;;;10.23;1.80;;;6.80;99.90;;;;;;5009183;28;20041;-61
2023/04/11 10:00:31;;;;;;;8.40;2.08;;;6.90;99.90;;;;;;5005892;28;20587;-61
2023/04/11 10:02:57;;;;;;;8.25;1.70;;;7.00;99.90;;;;;;4988962;28;20053;-62
2023/04/11 10:05:28;;;;;;;10.30;2.00;;;6.90;99.90;;;;;;5003173;28;20052;-58
2023/04/11 10:08:13;;;;;;;4.95;1.40;;;6.70;99.90;;;;;;5004004;28;20447;-61
2023/04/11 10:10:42;;;;;;;6.80;1.33;;;6.60;99.90;;;;;;5004832;28;20040;-59
2023/04/11 10:13:45;;;;;;;9.80;1.77;;;6.50;99.90;;;;;;5005027;28;20450;-61
2023/04/11 10:16:17;;;;;;;8.48;1.77;;;6.50;99.90;;;;;;5007981;28;20492;-61
2023/04/11 10:19:03;;;;;;;10.18;1.75;;;6.40;99.90;;;;;;4985239;28;20084;-62
2023/04/11 10:21:29;;;;;;;12.98;2.03;;;6.50;99.90;;;;;;4979115;28;20063;-61
2023/04/11 10:24:14;;;;;;;13.00;3.00;;;6.70;99.90;;;;;;5002970;28;20501;-62
2023/04/11 10:27:00;;;;;;;12.82;2.53;;;6.90;99.90;;;;;;5004506;28;20050;-61
2023/04/11 10:29:28;;;;;;;20.73;3.47;;;7.00;99.90;;;;;;5018720;28;20558;-61
2023/04/11 10:32:20;;;;;;;13.32;2.33;;;7.10;99.90;;;;;;5018711;28;20570;-62
2023/04/11 10:34:49;;;;;;;12.80;2.60;;;7.20;99.90;;;;;;4983896;28;20038;-61
2023/04/11 10:37:30;;;;;;;12.35;2.67;;;7.30;99.90;;;;;;5003947;28;20410;-61
2023/04/11 10:40:08;;;;;;;15.20;2.53;;;7.40;99.90;;;;;;4985712;28;20034;-61
2023/04/11 10:42:37;;;;;;;12.35;2.42;;;7.50;99.90;;;;;;5005278;28;20071;-61
2023/04/11 10:45:23;;;;;;;13.25;2.28;;;7.60;99.90;;;;;;5001242;28;20107;-63
2023/04/11 10:48:06;;;;;;;14.90;2.72;;;7.80;99.90;;;;;;4981742;28;20171;-62
2023/04/11 10:50:35;;;;;;;13.90;2.30;;;8.00;99.90;;;;;;4985632;28;20041;-62
2023/04/11 10:53:05;;;;;;;12.15;2.58;;;8.20;99.90;;;;;;5004712;28;20041;-62
2023/04/11 10:55:42;;;;;;;19.88;4.10;;;8.40;99.90;;;;;;4991133;28;20068;-61
2023/04/11 10:58:14;;;;;;;16.08;3.60;;;8.40;99.90;;;;;;5001137;28;20282;-62
2023/04/11 11:00:46;;;;;;;10.43;1.65;;;8.50;99.90;;;;;;5004102;28;20124;-62
2023/04/11 11:03:29;;;;;;;8.93;1.30;;;8.00;99.90;;;;;;5001274;28;20543;-60
2023/04/11 11:06:06;;;;;;;9.80;1.73;;;7.90;99.90;;;;;;5006681;28;20067;-61
2023/04/11 11:08:40;;;;;;;11.18;2.03;;;7.80;99.90;;;;;;5001707;28;20049;-61
2023/04/11 11:11:07;;;;;;;;;;;7.90;99.90;;;;;;5025075;28;20041;-62
2023/04/11 11:13:44;;;;;;;11.40;2.25;;;8.30;99.90;;;;;;4987872;28;19921;-62
2023/04/11 11:16:16;;;;;;;8.88;2.85;;;8.50;99.90;;;;;;5012857;28;20499;-60
2023/04/11 11:18:47;;;;;;;14.40;2.35;;;8.60;99.90;;;;;;5004686;28;20060;-61
2023/04/11 11:21:15;;;;;;;17.67;2.75;;;8.70;99.90;;;;;;5006507;28;20046;-62
2023/04/11 11:23:54;;;;;;;10.38;2.90;;;8.80;99.90;;;;;;5011471;28;20059;-61
2023/04/11 11:26:20;;;;;;;13.80;2.80;;;8.90;99.90;;;;;;5005858;28;20087;-61
2023/04/11 11:28:47;;;;;;;19.05;2.78;;;8.90;99.90;;;;;;4990043;28;20082;-62
2023/04/11 11:31:13;;;;;;;15.32;2.63;;;8.90;99.90;;;;;;5002450;28;20072;-62
2023/04/11 11:33:43;;;;;;;16.00;2.63;;;8.90;99.90;;;;;;4999104;28;20248;-61
2023/04/11 11:36:10;;;;;;;15.68;2.75;;;9.30;99.90;;;;;;5002960;28;20029;-60
2023/04/11 11:38:36;;;;;;;17.05;3.33;;;9.30;99.90;;;;;;5010739;28;20037;-62
2023/04/11 11:41:02;;;;;;;14.00;2.92;;;9.40;99.90;;;;;;4988587;28;20033;-61
2023/04/11 11:43:28;;;;;;;18.38;3.88;;;9.50;99.90;;;;;;5008867;28;20041;-60
2023/04/11 11:46:20;;;;;;;10.07;2.50;;;9.40;99.90;;;;;;5000908;28;20227;-61
2023/04/11 11:48:58;;;;;;;16.02;2.80;;;9.70;99.90;;;;;;5000642;28;20072;-61
2023/04/11 11:51:24;;;;;;;17.33;2.72;;;10.10;99.90;;;;;;4984743;28;20065;-59
2023/04/11 11:54:07;;;;;;;12.95;3.08;;;10.30;99.90;;;;;;4980921;28;20592;-64
2023/04/11 11:56:34;;;;;;;18.15;2.92;;;10.70;99.90;;;;;;5018621;28;20099;-62
2023/04/11 11:59:00;;;;;;;12.48;2.88;;;10.80;99.90;;;;;;5000777;28;20520;-61
2023/04/11 12:01:25;;;;;;;16.13;3.80;;;10.90;99.90;;;;;;5002138;28;20049;-62
2023/04/11 12:03:54;;;;;;;14.30;4.07;;;11.10;99.90;;;;;;5004084;28;20034;-61
2023/04/11 12:06:20;;;;;;;14.43;2.80;;;10.90;99.90;;;;;;4988190;28;20037;-62
2023/04/11 12:08:50;;;;;;;14.38;2.45;;;10.90;99.90;;;;;;5000241;28;20029;-61
2023/04/11 12:11:17;;;;;;;12.55;3.00;;;11.10;99.90;;;;;;5003184;28;20452;-62
2023/04/11 12:13:44;;;;;;;13.27;2.92;;;11.40;99.90;;;;;;5008899;28;20045;-61
2023/04/11 12:16:10;;;;;;;10.85;2.30;;;11.60;99.90;;;;;;5015042;28;20045;-61
2023/04/11 12:18:41;;;;;;;13.85;3.40;;;11.60;99.90;;;;;;5008054;28;20050;-62
2023/04/11 12:21:06;;;;;;;18.73;3.45;;;11.80;99.90;;;;;;5017374;28;20033;-61
2023/04/11 12:23:32;;;;;;;16.17;2.85;;;11.90;99.90;;;;;;4994648;28;20451;-60
2023/04/11 12:25:58;;;;;;;10.48;2.63;;;11.60;99.90;;;;;;5007198;28;20093;-61
2023/04/11 12:28:23;;;;;;;10.43;2.17;;;11.70;99.90;;;;;;5001811;28;20050;-60
2023/04/11 12:30:49;;;;;;;13.43;2.75;;;11.80;99.90;;;;;;4997467;28;20415;-61
2023/04/11 12:33:15;;;;;;;9.80;2.40;;;11.80;99.90;;;;;;4988325;28;20034;-62
2023/04/11 12:35:40;;;;;;;13.80;2.60;;;11.50;99.90;;;;;;5002497;28;20417;-62
2023/04/11 12:38:06;;;;;;;11.52;2.45;;;11.20;99.90;;;;;;5004408;28;20054;-61
2023/04/11 12:40:32;;;;;;;11.48;3.17;;;11.50;99.90;;;;;;5005589;28;20037;-61
2023/04/11 12:42:58;;;;;;;14.20;3.60;;;11.60;99.90;;;;;;5005607;28;20072;-63
2023/04/11 12:45:24;;;;;;;16.08;2.67;;;11.90;99.90;;;;;;4991788;28;20049;-59
2023/04/11 12:47:50;;;;;;;14.43;2.88;;;12.00;99.90;;;;;;5005546;28;20052;-62
2023/04/11 12:50:15;;;;;;;14.32;3.20;;;11.60;99.90;;;;;;5007181;28;20041;-61
2023/04/11 12:52:41;;;;;;;13.98;2.88;;;11.40;99.90;;;;;;4997530;28;20128;-61